Terminal Aerodrome Forecast
Issued by NWS Northern Indiana

Home | Current Version | Previous Version | Text Only | Print | Product List | Glossary Off
Versions: 1 2 3 4 5 6 7 8 9 10 11 12 13 14 15 16 17 18 19 20 21 22 23 24

000
FTUS43 KIWX 221700 RRA
TAFFWA
TAF
KFWA 221741Z 2218/2318 25010KT P6SM BKN020
     FM222000 25008KT P6SM BKN035
     FM230900 VRB03KT 5SM BR SCT004
      TEMPO 2309/2312 1SM BR BKN004
     FM231300 10005KT 3SM BR BKN010=

USA.gov is the U.S. government's official web portal to all federal, state and local government web resources and services.